createdAt,value
2023-02-22T00:00:10.109Z,3.63
2023-02-22T00:06:36.908Z,3.80
2023-02-22T00:09:39.451Z,3.63
2023-02-22T00:12:42.101Z,4.13
2023-02-22T00:15:45.774Z,3.03
2023-02-22T00:18:47.275Z,3.67
2023-02-22T00:21:53.730Z,3.78
2023-02-22T00:24:56.864Z,3.43
2023-02-22T00:27:59.461Z,3.60
2023-02-22T00:31:02.666Z,2.95
2023-02-22T00:34:03.961Z,3.13
2023-02-22T00:37:06.507Z,3.00
2023-02-22T00:40:10.181Z,3.20
2023-02-22T00:43:12.849Z,3.00
2023-02-22T00:46:15.112Z,3.35
2023-02-22T00:49:18.003Z,3.30
2023-02-22T00:52:20.603Z,3.10
2023-02-22T00:55:24.615Z,2.77
2023-02-22T00:58:27.269Z,2.73
2023-02-22T01:01:29.962Z,2.50
2023-02-22T01:04:32.670Z,3.30
2023-02-22T01:07:35.661Z,2.90
2023-02-22T01:10:38.496Z,3.23
2023-02-22T01:13:41.033Z,2.93
2023-02-22T01:16:43.578Z,2.90
2023-02-22T01:19:46.396Z,3.00
2023-02-22T01:22:50.618Z,2.85
2023-02-22T01:25:51.871Z,2.90
2023-02-22T01:28:54.533Z,3.17
2023-02-22T01:31:58.199Z,2.92
2023-02-22T01:34:59.509Z,2.92
2023-02-22T01:38:02.339Z,2.80
2023-02-22T01:41:04.859Z,3.07
2023-02-22T01:47:48.335Z,3.00
2023-02-22T01:50:53.721Z,2.65
2023-02-22T01:54:00.246Z,3.15
2023-02-22T01:57:07.597Z,3.30
2023-02-22T02:00:12.123Z,2.80
2023-02-22T02:03:20.076Z,2.30
2023-02-22T02:06:21.478Z,2.60
2023-02-22T02:09:30.730Z,2.70
2023-02-22T02:12:36.409Z,2.80
2023-02-22T02:15:38.003Z,2.87
2023-02-22T02:18:41.674Z,2.78
2023-02-22T02:22:21.699Z,3.35
2023-02-22T02:25:52.205Z,3.17
2023-02-22T02:29:10.714Z,2.63
2023-02-22T02:32:31.770Z,3.27
2023-02-22T02:35:48.542Z,2.60
2023-02-22T02:38:57.509Z,2.83
2023-02-22T02:45:30.280Z,3.40
2023-02-22T02:48:34.433Z,2.77
2023-02-22T02:51:43.017Z,2.45
2023-02-22T02:54:46.509Z,2.90
2023-02-22T03:01:08.759Z,2.43
2023-02-22T03:04:23.980Z,2.20
2023-02-22T03:07:46.376Z,2.78
2023-02-22T03:10:57.938Z,3.30
2023-02-22T03:14:09.527Z,2.60
2023-02-22T03:17:18.704Z,3.17
2023-02-22T03:23:58.777Z,2.83
2023-02-22T03:27:08.460Z,3.33
2023-02-22T03:33:41.102Z,2.73
2023-02-22T03:36:48.419Z,2.77
2023-02-22T03:39:53.525Z,2.70
2023-02-22T03:43:00.177Z,2.50
2023-02-22T03:46:04.592Z,2.28
2023-02-22T03:49:11.150Z,2.80
2023-02-22T03:52:14.558Z,2.90
2023-02-22T03:55:17.254Z,2.38
2023-02-22T03:58:22.899Z,2.78
2023-02-22T04:01:25.605Z,2.60
2023-02-22T04:04:27.007Z,2.77
2023-02-22T04:07:30.265Z,2.60
2023-02-22T04:10:32.720Z,2.50
2023-02-22T04:13:35.279Z,2.50
2023-02-22T04:16:37.850Z,2.55
2023-02-22T04:19:39.161Z,2.70
2023-02-22T04:22:42.593Z,2.73
2023-02-22T04:25:43.965Z,2.40
2023-02-22T04:28:46.479Z,2.90
2023-02-22T04:31:47.765Z,2.60
2023-02-22T04:34:50.477Z,2.30
2023-02-22T04:37:53.702Z,3.00
2023-02-22T04:40:55.271Z,2.77
2023-02-22T04:43:56.623Z,2.00
2023-02-22T04:46:57.918Z,2.22
2023-02-22T04:49:59.618Z,2.42
2023-02-22T04:53:01.876Z,2.20
2023-02-22T04:56:03.206Z,2.70
2023-02-22T04:59:05.738Z,2.27
2023-02-22T05:02:08.340Z,1.88
2023-02-22T05:05:10.388Z,2.50
2023-02-22T05:08:12.368Z,3.35
2023-02-22T05:11:13.922Z,2.67
2023-02-22T05:14:16.638Z,2.53
2023-02-22T05:17:18.047Z,3.03
2023-02-22T05:20:27.267Z,3.97
2023-02-22T05:23:30.477Z,4.25
2023-02-22T05:26:31.781Z,3.20
2023-02-22T05:29:33.228Z,3.53
2023-02-22T05:32:34.784Z,3.65
2023-02-22T05:38:58.354Z,3.67
2023-02-22T05:41:59.630Z,3.63
2023-02-22T05:45:00.992Z,3.10
2023-02-22T05:48:02.983Z,3.40
2023-02-22T05:51:06.126Z,2.80
2023-02-22T05:54:09.630Z,2.83
2023-02-22T05:57:10.907Z,3.20
2023-02-22T06:00:17.681Z,2.90
2023-02-22T06:03:19.036Z,2.65
2023-02-22T06:06:22.392Z,2.63
2023-02-22T06:09:25.764Z,2.20
2023-02-22T06:12:27.084Z,2.57
2023-02-22T06:15:30.312Z,2.30
2023-02-22T06:18:31.578Z,2.92
2023-02-22T06:21:34.356Z,2.55
2023-02-22T06:24:38.890Z,2.50
2023-02-22T06:27:41.498Z,2.40
2023-02-22T06:30:43.052Z,2.60
2023-02-22T06:33:44.401Z,2.00
2023-02-22T06:36:48.449Z,1.95
2023-02-22T06:39:50.491Z,2.20
2023-02-22T06:42:54.143Z,2.40
2023-02-22T06:45:56.223Z,2.37
2023-02-22T06:48:58.756Z,2.00
2023-02-22T06:52:01.327Z,2.42
2023-02-22T06:55:03.502Z,1.95
2023-02-22T06:58:05.033Z,2.03
2023-02-22T07:01:07.092Z,2.20
2023-02-22T07:04:08.516Z,2.00
2023-02-22T07:07:11.379Z,2.03
2023-02-22T07:10:19.368Z,2.20
2023-02-22T07:13:21.918Z,2.07
2023-02-22T07:16:24.553Z,2.20
2023-02-22T07:19:25.847Z,2.50
2023-02-22T07:22:28.373Z,2.20
2023-02-22T07:25:30.373Z,2.35
2023-02-22T07:28:33.202Z,2.90
2023-02-22T07:31:36.793Z,2.50
2023-02-22T07:34:38.081Z,2.70
2023-02-22T07:37:41.035Z,2.58
2023-02-22T07:40:44.055Z,2.78
2023-02-22T07:43:45.473Z,2.67
2023-02-22T07:46:48.682Z,2.47
2023-02-22T07:49:49.959Z,2.90
2023-02-22T07:52:54.728Z,2.97
2023-02-22T07:55:56.979Z,2.60
2023-02-22T07:58:59.519Z,3.10
2023-02-22T08:02:00.784Z,2.80
2023-02-22T08:05:03.325Z,2.88
2023-02-22T08:08:05.909Z,3.17
2023-02-22T08:11:09.392Z,2.90
2023-02-22T08:14:10.753Z,3.00
2023-02-22T08:17:12.102Z,3.07
2023-02-22T08:20:13.595Z,3.03
2023-02-22T08:23:17.408Z,3.10
2023-02-22T08:26:20.048Z,3.47
2023-02-22T08:29:24.247Z,2.90
2023-02-22T08:32:25.774Z,2.77
2023-02-22T08:35:28.652Z,3.30
2023-02-22T08:38:31.133Z,2.75
2023-02-22T08:41:34.308Z,3.10
2023-02-22T08:44:37.004Z,3.17
2023-02-22T08:47:38.341Z,3.23
2023-02-22T08:50:42.310Z,3.42
2023-02-22T08:53:43.846Z,3.38
2023-02-22T08:56:47.033Z,2.67
2023-02-22T08:59:48.520Z,3.13
2023-02-22T09:02:50.945Z,3.00
2023-02-22T09:05:52.243Z,3.00
2023-02-22T09:08:53.794Z,3.13
2023-02-22T09:11:55.710Z,2.92
2023-02-22T09:14:58.294Z,2.90
2023-02-22T09:18:00.259Z,3.23
2023-02-22T09:24:24.111Z,3.38
2023-02-22T09:27:27.498Z,2.90
2023-02-22T09:30:33.372Z,3.10
2023-02-22T09:33:34.890Z,3.20
2023-02-22T09:36:40.248Z,2.78
2023-02-22T09:43:15.979Z,3.88
2023-02-22T09:46:33.847Z,3.80
2023-02-22T09:49:40.693Z,3.50
2023-02-22T09:52:53.278Z,3.60
2023-02-22T09:56:00.383Z,4.50
2023-02-22T09:59:06.452Z,3.70
2023-02-22T10:02:25.046Z,3.67
2023-02-22T10:05:32.921Z,4.03
2023-02-22T10:08:35.827Z,3.25
2023-02-22T10:11:57.872Z,3.38
2023-02-22T10:15:38.298Z,2.38
2023-02-22T10:19:14.459Z,2.40
2023-02-22T10:22:37.882Z,2.50
2023-02-22T10:25:41.732Z,2.13
2023-02-22T10:29:01.948Z,2.83
2023-02-22T10:32:05.296Z,2.83
2023-02-22T10:35:17.884Z,2.30
2023-02-22T10:38:23.942Z,1.60
2023-02-22T10:41:28.986Z,2.10
2023-02-22T10:44:30.441Z,2.08
2023-02-22T10:47:33.784Z,1.85
2023-02-22T10:50:40.097Z,1.70
2023-02-22T10:53:41.513Z,1.87
2023-02-22T10:56:47.805Z,1.80
2023-02-22T10:59:51.277Z,1.63
2023-02-22T11:02:55.615Z,1.40
2023-02-22T11:06:22.312Z,1.47
2023-02-22T11:09:23.750Z,1.83
2023-02-22T11:12:31.241Z,1.95
2023-02-22T11:15:34.042Z,1.75
2023-02-22T11:18:36.156Z,1.40
2023-02-22T11:21:40.433Z,1.90
2023-02-22T11:24:49.201Z,1.63
2023-02-22T11:27:52.306Z,2.10
2023-02-22T11:30:56.001Z,1.73
2023-02-22T11:34:00.636Z,1.98
2023-02-22T11:37:29.438Z,1.73
2023-02-22T11:40:30.758Z,2.30
2023-02-22T11:43:33.332Z,1.77
2023-02-22T11:46:36.675Z,1.60
2023-02-22T11:53:30.271Z,1.97
2023-02-22T11:56:38.338Z,1.83
2023-02-22T11:59:48.539Z,2.13
2023-02-22T12:03:10.785Z,1.55
2023-02-22T12:06:26.930Z,1.48
2023-02-22T12:09:38.955Z,1.53
2023-02-22T12:12:50.732Z,1.70
2023-02-22T12:16:06.154Z,2.38
2023-02-22T12:19:15.829Z,2.40
2023-02-22T12:22:25.968Z,1.90
2023-02-22T12:25:30.985Z,2.40
2023-02-22T12:28:39.355Z,1.93
2023-02-22T12:31:45.607Z,1.80
2023-02-22T12:34:54.756Z,2.10
2023-02-22T12:38:05.126Z,1.63
2023-02-22T12:41:14.338Z,2.33
2023-02-22T12:44:23.028Z,2.00
2023-02-22T12:47:34.098Z,1.77
2023-02-22T12:50:37.000Z,2.05
2023-02-22T12:53:45.752Z,1.30
2023-02-22T12:56:52.876Z,1.70
2023-02-22T12:59:59.052Z,1.60
2023-02-22T13:03:05.559Z,1.95
2023-02-22T13:06:33.011Z,2.05
2023-02-22T13:09:59.782Z,1.75
2023-02-22T13:13:14.416Z,1.60
2023-02-22T13:16:28.849Z,1.50
2023-02-22T13:19:39.726Z,1.80
2023-02-22T13:22:48.605Z,1.73
2023-02-22T13:25:57.361Z,1.40
2023-02-22T13:29:06.407Z,1.90
2023-02-22T13:32:28.040Z,1.50
2023-02-22T13:35:41.715Z,1.75
2023-02-22T13:39:37.879Z,2.50
2023-02-22T13:43:10.177Z,2.08
2023-02-22T13:46:34.064Z,2.50
2023-02-22T13:53:46.715Z,2.40
2023-02-22T13:56:51.720Z,1.73
2023-02-22T14:00:20.349Z,2.15
2023-02-22T14:03:41.499Z,1.70
2023-02-22T14:06:43.171Z,1.80
2023-02-22T14:09:50.006Z,1.60
2023-02-22T14:12:51.400Z,1.80
2023-02-22T14:16:19.438Z,2.20
2023-02-22T14:19:24.290Z,1.80
2023-02-22T14:22:29.164Z,1.98
2023-02-22T14:25:35.691Z,1.67
2023-02-22T14:28:50.963Z,1.60
2023-02-22T14:32:01.970Z,1.57
2023-02-22T14:35:06.412Z,2.75
2023-02-22T14:38:17.690Z,2.53
2023-02-22T14:41:22.119Z,2.38
2023-02-22T14:44:27.483Z,2.50
2023-02-22T14:47:35.874Z,1.90
2023-02-22T14:50:48.020Z,1.95
2023-02-22T14:57:24.896Z,1.90
2023-02-22T15:00:32.048Z,2.60
2023-02-22T15:03:36.488Z,2.30
2023-02-22T15:06:37.986Z,1.60
2023-02-22T15:09:39.358Z,2.03
2023-02-22T15:12:41.861Z,2.20
2023-02-22T15:15:44.828Z,1.90
2023-02-22T15:18:50.996Z,1.80
2023-02-22T15:21:53.972Z,2.10
2023-02-22T15:24:58.824Z,1.85
2023-02-22T15:28:04.015Z,2.10
2023-02-22T15:31:24.405Z,2.13
2023-02-22T15:34:30.341Z,1.87
2023-02-22T15:37:31.826Z,1.83
2023-02-22T15:40:35.060Z,2.22
2023-02-22T15:43:37.757Z,1.77
2023-02-22T15:46:40.848Z,1.50
2023-02-22T15:49:44.578Z,2.00
2023-02-22T15:52:52.826Z,1.77
2023-02-22T15:55:57.776Z,1.95
2023-02-22T15:59:04.328Z,2.25
2023-02-22T16:02:05.721Z,2.00
2023-02-22T16:05:11.543Z,2.40
2023-02-22T16:08:17.211Z,2.25
2023-02-22T16:11:30.296Z,2.05
2023-02-22T16:14:43.212Z,1.85
2023-02-22T16:18:01.087Z,2.10
2023-02-22T16:21:10.888Z,2.30
2023-02-22T16:24:26.909Z,1.80
2023-02-22T16:27:28.204Z,2.28
2023-02-22T16:30:31.940Z,1.92
2023-02-22T16:33:33.270Z,2.00
2023-02-22T16:36:41.455Z,1.90
2023-02-22T16:39:45.397Z,1.88
2023-02-22T16:42:46.694Z,2.50
2023-02-22T16:45:48.175Z,2.30
2023-02-22T16:55:31.208Z,2.20
2023-02-22T16:58:36.890Z,2.17
2023-02-22T17:01:39.574Z,1.90
2023-02-22T17:04:43.136Z,2.40
2023-02-22T17:07:45.082Z,2.00
2023-02-22T17:10:46.545Z,1.80
2023-02-22T17:13:52.291Z,1.95
2023-02-22T17:16:53.578Z,1.80
2023-02-22T17:19:55.153Z,2.20
2023-02-22T17:22:58.918Z,2.10
2023-02-22T17:26:02.737Z,2.13
2023-02-22T17:29:04.030Z,2.05
2023-02-22T17:32:06.656Z,2.40
2023-02-22T17:35:08.133Z,2.20
2023-02-22T17:38:11.302Z,2.40
2023-02-22T17:41:12.597Z,2.88
2023-02-22T17:44:13.913Z,2.60
2023-02-22T17:47:16.478Z,2.50
2023-02-22T17:50:18.808Z,2.87
2023-02-22T17:53:23.757Z,2.80
2023-02-22T17:56:26.345Z,2.58
2023-02-22T17:59:28.247Z,2.90
2023-02-22T18:02:30.840Z,3.20
2023-02-22T18:05:33.960Z,3.20
2023-02-22T18:08:39.524Z,2.37
2023-02-22T18:11:42.089Z,2.72
2023-02-22T18:14:44.618Z,2.08
2023-02-22T18:17:46.802Z,2.40
2023-02-22T18:20:51.905Z,2.43
2023-02-22T18:23:54.139Z,2.77
2023-02-22T18:26:57.027Z,2.65
2023-02-22T18:29:58.462Z,2.00
2023-02-22T18:33:00.999Z,2.15
2023-02-22T18:36:02.298Z,2.67
2023-02-22T18:39:12.055Z,2.37
2023-02-22T18:42:14.609Z,2.30
2023-02-22T18:52:00.468Z,1.90
2023-02-22T18:55:02.441Z,2.53
2023-02-22T18:58:05.531Z,2.40
2023-02-22T19:01:06.938Z,2.10
2023-02-22T19:04:09.341Z,2.30
2023-02-22T19:07:16.866Z,2.13
2023-02-22T19:10:21.586Z,2.43
2023-02-22T19:13:23.040Z,3.40
2023-02-22T19:16:26.701Z,4.38
2023-02-22T19:19:30.702Z,4.20
2023-02-22T19:22:33.535Z,3.38
2023-02-22T19:25:39.592Z,3.13
2023-02-22T19:28:40.920Z,3.60
2023-02-22T19:31:42.944Z,3.60
2023-02-22T19:34:44.580Z,3.60
2023-02-22T19:37:48.563Z,3.30
2023-02-22T19:40:50.510Z,2.93
2023-02-22T19:43:54.221Z,2.53
2023-02-22T19:46:55.505Z,2.70
2023-02-22T19:49:59.195Z,3.30
2023-02-22T19:53:02.896Z,2.70
2023-02-22T19:56:08.798Z,3.37
2023-02-22T19:59:14.110Z,3.07
2023-02-22T20:02:15.409Z,3.88
2023-02-22T20:05:18.137Z,3.10
2023-02-22T20:08:20.336Z,2.95
2023-02-22T20:11:23.278Z,3.70
2023-02-22T20:14:28.871Z,3.37
2023-02-22T20:17:31.434Z,3.05
2023-02-22T20:20:32.817Z,3.88
2023-02-22T20:23:35.412Z,3.70
2023-02-22T20:26:38.899Z,3.67
2023-02-22T20:29:41.801Z,3.13
2023-02-22T20:32:43.514Z,3.03
2023-02-22T20:35:47.126Z,2.75
2023-02-22T20:38:52.514Z,2.90
2023-02-22T20:41:54.519Z,3.47
2023-02-22T20:45:00.960Z,3.57
2023-02-22T20:48:02.274Z,3.05
2023-02-22T20:51:09.407Z,3.38
2023-02-22T20:54:11.591Z,3.40
2023-02-22T20:57:14.761Z,3.70
2023-02-22T21:00:17.278Z,3.40
2023-02-22T21:03:19.804Z,3.72
2023-02-22T21:06:22.115Z,3.40
2023-02-22T21:12:48.287Z,4.00
2023-02-22T21:15:51.861Z,4.10
2023-02-22T21:18:55.695Z,3.95
2023-02-22T21:21:58.583Z,3.85
2023-02-22T21:25:01.471Z,3.75
2023-02-22T21:28:04.125Z,4.10
2023-02-22T21:31:07.758Z,3.87
2023-02-22T21:34:11.642Z,3.97
2023-02-22T21:37:18.590Z,3.80
2023-02-22T21:40:21.581Z,4.30
2023-02-22T21:43:25.650Z,4.10
2023-02-22T21:53:13.150Z,4.20
2023-02-22T21:56:19.400Z,4.03
2023-02-22T21:59:22.937Z,4.60
2023-02-22T22:02:25.544Z,4.50
2023-02-22T22:05:33.006Z,4.80
2023-02-22T22:08:40.464Z,4.43
2023-02-22T22:11:41.863Z,4.75
2023-02-22T22:14:45.310Z,4.70
2023-02-22T22:17:46.873Z,5.20
2023-02-22T22:20:52.336Z,4.93
2023-02-22T22:23:57.231Z,4.93
2023-02-22T22:27:02.838Z,4.18
2023-02-22T22:30:08.393Z,5.43
2023-02-22T22:33:10.517Z,4.63
2023-02-22T22:36:14.836Z,5.43
2023-02-22T22:39:20.102Z,5.70
2023-02-22T22:45:47.341Z,5.13
2023-02-22T22:48:49.886Z,6.00
2023-02-22T22:51:53.142Z,6.07
2023-02-22T22:54:54.411Z,6.47
2023-02-22T22:57:56.972Z,5.72
2023-02-22T23:01:01.682Z,5.93
2023-02-22T23:04:05.712Z,6.10
2023-02-22T23:07:08.330Z,6.70
2023-02-22T23:10:13.163Z,5.50
2023-02-22T23:13:15.095Z,6.00
2023-02-22T23:16:20.296Z,6.65
2023-02-22T23:22:46.540Z,7.20
2023-02-22T23:25:51.290Z,6.97
2023-02-22T23:28:56.495Z,6.47
2023-02-22T23:31:58.510Z,7.07
2023-02-22T23:35:02.262Z,6.40
2023-02-22T23:38:09.477Z,6.82
2023-02-22T23:41:17.789Z,7.35
2023-02-22T23:44:20.798Z,6.85
2023-02-22T23:47:24.104Z,7.87
2023-02-22T23:50:29.482Z,7.47
2023-02-22T23:53:31.810Z,7.35
2023-02-22T23:56:35.905Z,8.43
2023-02-22T23:59:40.826Z,7.97
